createdAt,value
2023-05-23T00:02:39.103Z,97865.47
2023-05-23T00:07:41.325Z,97860.63
2023-05-23T00:12:43.231Z,97857.69
2023-05-23T00:17:45.110Z,97863.63
2023-05-23T00:22:49.315Z,97861.91
2023-05-23T00:27:51.623Z,97867.22
2023-05-23T00:32:54.660Z,97873.34
2023-05-23T00:37:56.589Z,97881.34
2023-05-23T00:42:58.475Z,97879.03
2023-05-23T00:48:01.611Z,97861.81
2023-05-23T00:53:04.408Z,97852.13
2023-05-23T00:58:06.987Z,97851.94
2023-05-23T01:03:09.307Z,97868.41
2023-05-23T01:08:11.336Z,97883.28
2023-05-23T01:13:26.106Z,97881.66
2023-05-23T01:18:31.455Z,97886.63
2023-05-23T01:24:07.644Z,97865.38
2023-05-23T01:29:17.442Z,97879.97
2023-05-23T01:34:21.010Z,97884.28
2023-05-23T01:39:23.850Z,97883.88
2023-05-23T01:44:25.762Z,97900.88
2023-05-23T01:49:31.967Z,97890.53
2023-05-23T01:54:35.616Z,97885.88
2023-05-23T01:59:38.651Z,97872.09
2023-05-23T02:04:40.943Z,97873.19
2023-05-23T02:09:42.864Z,97863.78
2023-05-23T02:14:44.957Z,97875.00
2023-05-23T02:19:47.065Z,97870.09
2023-05-23T02:24:49.908Z,97844.22
2023-05-23T02:29:51.820Z,97849.50
2023-05-23T02:34:55.684Z,97836.41
2023-05-23T02:39:59.194Z,97817.78
2023-05-23T02:45:01.742Z,97810.03
2023-05-23T02:50:04.008Z,97803.44
2023-05-23T02:55:06.942Z,97796.06
2023-05-23T03:00:15.846Z,97797.91
2023-05-23T03:05:22.703Z,97786.88
2023-05-23T03:10:24.598Z,97781.59
2023-05-23T03:15:26.454Z,97768.91
2023-05-23T03:20:28.339Z,97761.03
2023-05-23T03:25:30.584Z,97759.44
2023-05-23T03:30:32.596Z,97761.91
2023-05-23T03:35:34.497Z,97756.03
2023-05-23T03:40:36.390Z,97755.22
2023-05-23T03:45:38.619Z,97760.72
2023-05-23T03:50:47.928Z,97771.13
2023-05-23T03:55:49.835Z,97757.38
2023-05-23T04:00:53.321Z,97780.00
2023-05-23T04:05:57.880Z,97781.88
2023-05-23T04:11:02.997Z,97787.84
2023-05-23T04:16:09.731Z,97793.72
2023-05-23T04:21:11.753Z,97800.03
2023-05-23T04:26:22.539Z,97794.59
2023-05-23T04:31:28.208Z,97806.94
2023-05-23T04:36:30.525Z,97807.00
2023-05-23T04:41:32.825Z,97816.44
2023-05-23T04:47:02.882Z,97825.13
2023-05-23T04:52:24.146Z,97830.97
2023-05-23T04:57:26.954Z,97836.16
2023-05-23T05:02:35.404Z,97824.34
2023-05-23T05:07:38.334Z,97819.56
2023-05-23T05:12:41.846Z,97822.63
2023-05-23T05:17:46.122Z,97818.75
2023-05-23T05:22:58.715Z,97826.88
2023-05-23T05:28:06.318Z,97820.94
2023-05-23T05:33:15.884Z,97827.72
2023-05-23T05:38:18.165Z,97829.59
2023-05-23T05:43:21.304Z,97830.69
2023-05-23T05:48:23.412Z,97827.22
2023-05-23T05:53:27.491Z,97824.94
2023-05-23T05:58:29.702Z,97830.03
2023-05-23T06:03:35.875Z,97826.84
2023-05-23T06:08:37.916Z,97836.59
2023-05-23T06:13:39.890Z,97837.25
2023-05-23T06:18:42.016Z,97843.31
2023-05-23T06:23:44.249Z,97858.28
2023-05-23T06:28:46.276Z,97858.38
2023-05-23T06:33:48.195Z,97868.03
2023-05-23T06:38:50.072Z,97874.03
2023-05-23T06:43:51.949Z,97872.00
2023-05-23T06:49:10.649Z,97879.66
2023-05-23T06:54:16.637Z,97884.25
2023-05-23T06:59:19.743Z,97875.56
2023-05-23T07:04:21.947Z,97877.44
2023-05-23T07:09:24.281Z,97881.72
2023-05-23T07:14:31.232Z,97880.97
2023-05-23T07:19:33.370Z,97873.00
2023-05-23T07:24:37.289Z,97886.09
2023-05-23T07:29:40.228Z,97896.56
2023-05-23T07:34:44.072Z,97893.16
2023-05-23T07:39:46.171Z,97897.94
2023-05-23T07:44:48.333Z,97894.06
2023-05-23T07:49:52.358Z,97885.25
2023-05-23T07:54:55.705Z,97888.66
2023-05-23T07:59:57.998Z,97890.81
2023-05-23T08:05:01.866Z,97895.78
2023-05-23T08:10:05.331Z,97900.06
2023-05-23T08:15:08.307Z,97885.59
2023-05-23T08:20:20.013Z,97903.13
2023-05-23T08:25:22.063Z,97898.19
2023-05-23T08:30:25.588Z,97915.69
2023-05-23T08:35:29.485Z,97908.19
2023-05-23T08:40:32.986Z,97909.81
2023-05-23T08:45:44.815Z,97922.72
2023-05-23T08:50:51.838Z,97927.19
2023-05-23T08:55:58.912Z,97936.25
2023-05-23T09:01:06.616Z,97940.13
2023-05-23T09:06:10.242Z,97950.41
2023-05-23T09:11:14.847Z,97940.81
2023-05-23T09:16:19.843Z,97944.19
2023-05-23T09:21:32.121Z,97948.66
2023-05-23T09:26:40.311Z,97959.59
2023-05-23T09:31:42.332Z,97954.19
2023-05-23T09:36:47.090Z,97949.66
2023-05-23T09:41:50.798Z,97962.69
2023-05-23T09:46:53.922Z,97964.66
2023-05-23T09:52:01.477Z,97970.69
2023-05-23T09:57:08.875Z,97976.94
2023-05-23T10:02:13.397Z,97973.34
2023-05-23T10:07:20.402Z,97978.84
2023-05-23T10:12:37.701Z,97985.66
2023-05-23T10:18:17.902Z,97983.75
2023-05-23T10:23:21.331Z,97989.78
2023-05-23T10:28:24.740Z,97990.78
2023-05-23T10:33:31.832Z,97994.47
2023-05-23T10:38:39.724Z,98010.28
2023-05-23T10:44:06.239Z,97987.84
2023-05-23T10:49:09.137Z,98005.38
2023-05-23T10:54:12.273Z,98020.06
2023-05-23T10:59:23.139Z,98024.41
2023-05-23T11:04:27.806Z,98021.81
2023-05-23T11:09:29.807Z,98021.03
2023-05-23T11:14:34.595Z,98020.69
2023-05-23T11:19:36.598Z,98020.31
2023-05-23T11:24:49.454Z,98015.13
2023-05-23T11:29:59.021Z,98018.63
2023-05-23T11:35:02.962Z,98014.53
2023-05-23T11:40:28.088Z,98017.56
2023-05-23T11:45:32.281Z,98018.19
2023-05-23T11:50:35.437Z,98016.81
2023-05-23T11:55:41.330Z,98012.69
2023-05-23T12:00:45.328Z,98011.13
2023-05-23T12:05:48.906Z,98017.94
2023-05-23T12:10:59.950Z,98002.84
2023-05-23T12:16:03.421Z,98008.81
2023-05-23T12:21:09.087Z,98006.13
2023-05-23T12:26:11.450Z,98018.69
2023-05-23T12:31:17.218Z,98010.63
2023-05-23T12:36:24.543Z,98014.09
2023-05-23T12:41:27.169Z,98007.53
2023-05-23T12:46:29.117Z,98017.25
2023-05-23T12:51:31.145Z,98019.31
2023-05-23T12:56:33.129Z,98023.06
2023-05-23T13:01:36.841Z,98019.91
2023-05-23T13:06:38.852Z,98034.34
2023-05-23T13:11:41.641Z,98023.69
2023-05-23T13:16:45.165Z,98032.50
2023-05-23T13:21:48.741Z,98031.91
2023-05-23T13:26:51.678Z,98039.44
2023-05-23T13:31:53.950Z,98048.25
2023-05-23T13:36:56.055Z,98046.97
2023-05-23T13:41:58.020Z,98050.19
2023-05-23T13:47:13.714Z,98052.38
2023-05-23T13:52:15.675Z,98075.81
2023-05-23T13:57:17.682Z,98080.56
2023-05-23T14:02:19.601Z,98086.28
2023-05-23T14:07:22.150Z,98088.22
2023-05-23T14:12:24.170Z,98087.94
2023-05-23T14:17:26.134Z,98088.06
2023-05-23T14:22:28.124Z,98096.44
2023-05-23T14:27:30.005Z,98094.16
2023-05-23T14:32:35.785Z,98093.03
2023-05-23T14:37:38.160Z,98097.34
2023-05-23T14:42:40.107Z,98102.84
2023-05-23T14:47:42.136Z,98098.19
2023-05-23T14:52:44.154Z,98099.06
2023-05-23T14:57:46.157Z,98112.38
2023-05-23T15:02:48.269Z,98114.78
2023-05-23T15:07:50.203Z,98114.03
2023-05-23T15:12:52.235Z,98118.75
2023-05-23T15:17:54.249Z,98111.38
2023-05-23T15:22:56.216Z,98109.47
2023-05-23T15:27:58.608Z,98110.25
2023-05-23T15:33:01.773Z,98118.81
2023-05-23T15:38:03.840Z,98121.88
2023-05-23T15:43:05.923Z,98115.28
2023-05-23T15:48:07.883Z,98102.78
2023-05-23T15:53:09.954Z,98126.34
2023-05-23T15:58:11.940Z,98127.19
2023-05-23T16:03:13.873Z,98128.00
2023-05-23T16:08:15.907Z,98131.19
2023-05-23T16:13:18.120Z,98138.59
2023-05-23T16:18:20.870Z,98145.31
2023-05-23T16:23:24.356Z,98141.13
2023-05-23T16:28:27.501Z,98139.63
2023-05-23T16:33:29.418Z,98141.16
2023-05-23T16:38:31.430Z,98138.06
2023-05-23T16:43:34.700Z,98149.00
2023-05-23T16:48:36.580Z,98149.00
2023-05-23T16:53:38.479Z,98148.22
2023-05-23T16:58:40.357Z,98139.63
2023-05-23T17:03:42.586Z,98131.03
2023-05-23T17:08:44.623Z,98152.91
2023-05-23T17:13:46.764Z,98172.41
2023-05-23T17:18:48.688Z,98180.59
2023-05-23T17:23:50.665Z,98180.13
2023-05-23T17:28:52.701Z,98182.47
2023-05-23T17:33:54.619Z,98190.28
2023-05-23T17:38:56.924Z,98197.31
2023-05-23T17:43:58.854Z,98211.31
2023-05-23T17:49:00.942Z,98214.38
2023-05-23T17:54:04.442Z,98224.50
2023-05-23T17:59:06.408Z,98225.22
2023-05-23T18:04:09.353Z,98231.38
2023-05-23T18:09:11.238Z,98226.63
2023-05-23T18:14:13.147Z,98239.16
2023-05-23T18:19:15.239Z,98246.94
2023-05-23T18:24:17.256Z,98251.91
2023-05-23T18:29:20.184Z,98259.25
2023-05-23T18:34:22.530Z,98267.06
2023-05-23T18:39:24.425Z,98276.22
2023-05-23T18:44:26.486Z,98280.75
2023-05-23T18:49:28.410Z,98276.84
2023-05-23T18:54:30.376Z,98289.97
2023-05-23T18:59:32.298Z,98303.66
2023-05-23T19:04:34.156Z,98314.59
2023-05-23T19:09:36.067Z,98323.50
2023-05-23T19:14:38.027Z,98330.47
2023-05-23T19:19:40.030Z,98338.13
2023-05-23T19:24:42.553Z,98345.63
2023-05-23T19:29:44.663Z,98366.25
2023-05-23T19:34:46.628Z,98387.19
2023-05-23T19:39:48.826Z,98376.41
2023-05-23T19:44:51.384Z,98380.75
2023-05-23T19:49:53.302Z,98379.38
2023-05-23T19:54:55.189Z,98393.66
2023-05-23T19:59:57.104Z,98393.56
2023-05-23T20:04:58.992Z,98409.94
2023-05-23T20:10:00.903Z,98413.09
2023-05-23T20:15:03.965Z,98421.59
2023-05-23T20:20:06.580Z,98424.75
2023-05-23T20:25:08.769Z,98425.47
2023-05-23T20:30:11.389Z,98433.59
2023-05-23T20:35:13.532Z,98444.81
2023-05-23T20:40:15.406Z,98443.94
2023-05-23T20:45:17.509Z,98446.78
2023-05-23T20:50:19.561Z,98456.00
2023-05-23T20:55:22.438Z,98453.69
2023-05-23T21:00:24.480Z,98472.97
2023-05-23T21:05:26.655Z,98470.94
2023-05-23T21:10:29.181Z,98481.81
2023-05-23T21:15:31.505Z,98484.41
2023-05-23T21:20:33.463Z,98482.53
2023-05-23T21:25:35.403Z,98487.72
2023-05-23T21:30:37.293Z,98488.78
2023-05-23T21:35:39.371Z,98490.38
2023-05-23T21:40:41.593Z,98499.38
2023-05-23T21:45:43.626Z,98491.59
2023-05-23T21:50:45.518Z,98487.78
2023-05-23T21:55:47.510Z,98495.44
2023-05-23T22:00:49.397Z,98493.63
2023-05-23T22:05:51.289Z,98489.81
2023-05-23T22:10:53.155Z,98489.06
2023-05-23T22:15:55.095Z,98490.00
2023-05-23T22:20:56.945Z,98493.16
2023-05-23T22:25:58.874Z,98492.03
2023-05-23T22:31:02.938Z,98488.47
2023-05-23T22:36:05.409Z,98486.59
2023-05-23T22:41:07.331Z,98487.25
2023-05-23T22:46:09.267Z,98491.19
2023-05-23T22:51:13.379Z,98487.31
2023-05-23T22:56:15.785Z,98478.69
2023-05-23T23:01:17.833Z,98465.38
2023-05-23T23:06:21.168Z,98459.13
2023-05-23T23:11:23.044Z,98454.44
2023-05-23T23:16:26.224Z,98465.25
2023-05-23T23:21:28.288Z,98467.13
2023-05-23T23:26:30.197Z,98468.25
2023-05-23T23:31:32.297Z,98474.56
2023-05-23T23:36:34.348Z,98480.06
2023-05-23T23:41:36.222Z,98479.16
2023-05-23T23:46:38.191Z,98475.28
2023-05-23T23:51:40.072Z,98465.13
2023-05-23T23:56:42.048Z,98478.50
